createdAt,value
2019-05-21T00:02:16.128Z,99.90
2019-05-21T00:04:46.296Z,99.90
2019-05-21T00:07:37.230Z,99.90
2019-05-21T00:10:07.532Z,99.90
2019-05-21T00:12:37.666Z,99.90
2019-05-21T00:15:08.785Z,99.90
2019-05-21T00:17:39.075Z,99.90
2019-05-21T00:20:09.573Z,99.90
2019-05-21T00:22:39.795Z,99.90
2019-05-21T00:25:10.626Z,99.90
2019-05-21T00:27:40.821Z,99.90
2019-05-21T00:30:46.656Z,99.90
2019-05-21T00:33:52.758Z,99.90
2019-05-21T00:37:01.311Z,99.90
2019-05-21T00:40:07.334Z,99.90
2019-05-21T00:42:40.449Z,99.90
2019-05-21T00:45:28.937Z,99.90
2019-05-21T00:47:59.090Z,99.90
2019-05-21T00:50:49.568Z,99.90
2019-05-21T00:53:19.704Z,99.90
2019-05-21T00:58:39.381Z,99.90
2019-05-21T01:01:09.581Z,99.90
2019-05-21T01:03:43.157Z,99.90
2019-05-21T01:06:11.518Z,99.90
2019-05-21T01:08:41.695Z,99.90
2019-05-21T01:11:11.993Z,99.90
2019-05-21T01:13:42.107Z,99.90
2019-05-21T01:16:12.252Z,99.90
2019-05-21T01:18:42.457Z,99.90
2019-05-21T01:21:12.641Z,99.90
2019-05-21T01:23:42.752Z,99.90
2019-05-21T01:26:12.914Z,99.90
2019-05-21T01:28:43.066Z,99.90
2019-05-21T01:31:13.248Z,99.90
2019-05-21T01:34:03.787Z,99.90
2019-05-21T01:36:33.921Z,99.90
2019-05-21T01:39:23.028Z,99.90
2019-05-21T01:41:53.186Z,99.90
2019-05-21T01:44:23.372Z,99.90
2019-05-21T01:46:53.504Z,99.90
2019-05-21T01:49:23.617Z,99.90
2019-05-21T01:51:53.809Z,99.90
2019-05-21T01:54:23.946Z,99.90
2019-05-21T01:56:54.105Z,99.90
2019-05-21T01:59:24.243Z,99.90
2019-05-21T02:01:54.380Z,99.90
2019-05-21T02:04:24.505Z,99.90
2019-05-21T02:06:55.162Z,99.90
2019-05-21T02:09:25.518Z,99.90
2019-05-21T02:11:55.694Z,99.90
2019-05-21T02:14:25.840Z,99.90
2019-05-21T02:17:15.100Z,99.90
2019-05-21T02:19:45.263Z,99.90
2019-05-21T02:22:39.134Z,99.90
2019-05-21T02:25:05.331Z,99.90
2019-05-21T02:27:35.442Z,99.90
2019-05-21T02:30:07.823Z,99.90
2019-05-21T02:32:38.150Z,99.90
2019-05-21T02:35:08.493Z,99.90
2019-05-21T02:37:38.606Z,99.90
2019-05-21T02:40:10.259Z,99.90
2019-05-21T02:42:40.487Z,99.90
2019-05-21T02:45:11.147Z,99.90
2019-05-21T02:47:41.253Z,99.90
2019-05-21T02:50:12.816Z,99.90
2019-05-21T02:52:42.928Z,99.90
2019-05-21T02:55:13.090Z,99.90
2019-05-21T02:57:43.249Z,99.90
2019-05-21T03:00:39.269Z,99.90
2019-05-21T03:03:10.121Z,99.90
2019-05-21T03:05:50.966Z,99.90
2019-05-21T03:08:21.118Z,99.90
2019-05-21T03:11:09.117Z,99.90
2019-05-21T03:13:39.251Z,99.90
2019-05-21T03:16:09.483Z,99.90
2019-05-21T03:18:39.622Z,99.90
2019-05-21T03:21:09.800Z,99.90
2019-05-21T03:23:39.936Z,99.90
2019-05-21T03:26:10.133Z,99.90
2019-05-21T03:28:40.238Z,99.90
2019-05-21T03:31:10.353Z,99.90
2019-05-21T03:33:40.539Z,99.90
2019-05-21T03:36:10.641Z,99.90
2019-05-21T03:38:40.760Z,99.90
2019-05-21T03:41:10.882Z,99.90
2019-05-21T03:43:41.039Z,99.90
2019-05-21T03:46:11.182Z,99.90
2019-05-21T03:49:03.756Z,99.90
2019-05-21T03:51:34.225Z,99.90
2019-05-21T03:54:31.584Z,99.90
2019-05-21T03:57:01.697Z,99.90
2019-05-21T03:59:50.625Z,99.90
2019-05-21T04:02:20.850Z,99.90
2019-05-21T04:05:21.058Z,99.90
2019-05-21T04:07:51.185Z,99.90
2019-05-21T04:10:36.972Z,99.90
2019-05-21T04:13:07.975Z,99.90
2019-05-21T04:16:14.938Z,99.90
2019-05-21T04:19:04.030Z,99.90
2019-05-21T04:21:34.186Z,99.90
2019-05-21T04:24:08.498Z,99.90
2019-05-21T04:26:52.394Z,99.90
2019-05-21T04:29:22.599Z,99.90
2019-05-21T04:32:05.009Z,99.90
2019-05-21T04:34:35.122Z,99.90
2019-05-21T04:37:10.932Z,99.90
2019-05-21T04:39:37.066Z,99.90
2019-05-21T04:42:07.239Z,99.90
2019-05-21T04:44:41.780Z,99.90
2019-05-21T04:47:12.182Z,99.90
2019-05-21T04:49:42.321Z,99.90
2019-05-21T04:52:12.489Z,99.90
2019-05-21T04:54:42.649Z,99.90
2019-05-21T04:57:12.825Z,99.90
2019-05-21T04:59:42.976Z,99.90
2019-05-21T05:02:13.081Z,99.90
2019-05-21T05:04:46.315Z,99.90
2019-05-21T05:07:27.789Z,99.90
2019-05-21T05:10:06.945Z,99.90
2019-05-21T05:12:37.041Z,99.90
2019-05-21T05:15:07.779Z,99.90
2019-05-21T05:17:37.915Z,99.90
2019-05-21T05:20:08.256Z,99.90
2019-05-21T05:22:38.412Z,99.90
2019-05-21T05:25:08.703Z,99.90
2019-05-21T05:27:38.872Z,99.90
2019-05-21T05:30:09.242Z,99.90
2019-05-21T05:32:39.719Z,99.90
2019-05-21T05:35:09.924Z,99.90
2019-05-21T05:37:46.356Z,99.90
2019-05-21T05:40:13.570Z,99.90
2019-05-21T05:42:44.059Z,99.90
2019-05-21T05:45:15.117Z,99.90
2019-05-21T05:48:05.672Z,99.90
2019-05-21T05:50:38.625Z,99.90
2019-05-21T05:53:39.983Z,99.90
2019-05-21T05:56:10.232Z,99.90
2019-05-21T05:58:51.545Z,99.90
2019-05-21T06:01:21.783Z,99.90
2019-05-21T06:03:51.901Z,99.90
2019-05-21T06:06:22.044Z,99.90
2019-05-21T06:08:52.197Z,99.90
2019-05-21T06:11:22.340Z,99.90
2019-05-21T06:13:52.485Z,99.90
2019-05-21T06:16:22.639Z,99.90
2019-05-21T06:18:52.791Z,99.90
2019-05-21T06:21:22.946Z,99.90
2019-05-21T06:23:53.091Z,99.90
2019-05-21T06:26:23.233Z,99.90
2019-05-21T06:28:53.442Z,99.90
2019-05-21T06:31:23.571Z,99.90
2019-05-21T06:33:54.322Z,99.90
2019-05-21T06:36:47.397Z,99.90
2019-05-21T06:39:17.547Z,99.90
2019-05-21T06:42:07.498Z,99.90
2019-05-21T06:44:37.923Z,99.90
2019-05-21T06:47:08.280Z,99.90
2019-05-21T06:49:38.745Z,99.90
2019-05-21T06:52:08.952Z,99.90
2019-05-21T06:54:42.091Z,99.90
2019-05-21T06:57:12.317Z,99.90
2019-05-21T06:59:42.470Z,99.90
2019-05-21T07:02:12.626Z,99.90
2019-05-21T07:04:42.742Z,99.90
2019-05-21T07:07:12.883Z,99.90
2019-05-21T07:09:43.059Z,99.90
2019-05-21T07:12:13.232Z,99.90
2019-05-21T07:14:54.242Z,99.90
2019-05-21T07:17:24.472Z,99.90
2019-05-21T07:20:09.283Z,99.90
2019-05-21T07:22:26.514Z,99.90
2019-05-21T07:24:56.701Z,99.90
2019-05-21T07:27:26.866Z,99.90
2019-05-21T07:30:04.935Z,99.90
2019-05-21T07:32:35.194Z,99.90
2019-05-21T07:35:05.821Z,99.90
2019-05-21T07:37:36.038Z,99.90
2019-05-21T07:40:08.156Z,99.90
2019-05-21T07:42:38.373Z,99.90
2019-05-21T07:45:08.646Z,99.90
2019-05-21T07:47:50.549Z,99.90
2019-05-21T07:50:20.685Z,99.90
2019-05-21T07:53:12.872Z,99.90
2019-05-21T07:55:43.058Z,99.90
2019-05-21T07:58:19.757Z,99.90
2019-05-21T08:00:49.885Z,99.90
2019-05-21T08:03:20.053Z,99.90
2019-05-21T08:05:50.184Z,99.90
2019-05-21T08:08:20.370Z,99.90
2019-05-21T08:10:50.583Z,99.90
2019-05-21T08:13:20.961Z,99.90
2019-05-21T08:15:51.376Z,99.90
2019-05-21T08:18:21.525Z,99.90
2019-05-21T08:20:51.655Z,99.90
2019-05-21T08:23:21.897Z,99.90
2019-05-21T08:25:52.088Z,99.90
2019-05-21T08:28:22.242Z,99.90
2019-05-21T08:31:20.613Z,99.90
2019-05-21T08:33:50.786Z,99.90
2019-05-21T08:36:41.275Z,99.90
2019-05-21T08:39:26.071Z,99.90
2019-05-21T08:41:43.194Z,99.90
2019-05-21T08:44:13.332Z,99.90
2019-05-21T08:46:43.573Z,99.90
2019-05-21T08:49:14.037Z,99.90
2019-05-21T08:51:45.116Z,99.90
2019-05-21T08:54:16.858Z,99.90
2019-05-21T08:56:47.028Z,99.90
2019-05-21T08:59:17.205Z,99.90
2019-05-21T09:01:47.322Z,99.90
2019-05-21T09:04:17.562Z,99.90
2019-05-21T09:06:47.720Z,99.90
2019-05-21T09:09:49.034Z,99.90
2019-05-21T09:12:06.226Z,99.90
2019-05-21T09:14:36.362Z,99.90
2019-05-21T09:17:06.496Z,99.90
2019-05-21T09:19:36.914Z,99.90
2019-05-21T09:22:07.122Z,99.90
2019-05-21T09:24:37.269Z,99.90
2019-05-21T09:27:07.380Z,99.90
2019-05-21T09:29:37.556Z,99.90
2019-05-21T09:32:07.667Z,99.90
2019-05-21T09:34:48.188Z,99.90
2019-05-21T09:37:19.261Z,99.90
2019-05-21T09:39:41.493Z,99.90
2019-05-21T09:42:11.638Z,99.90
2019-05-21T09:44:41.860Z,99.90
2019-05-21T09:47:12.012Z,99.90
2019-05-21T09:49:42.172Z,99.90
2019-05-21T09:52:14.604Z,99.90
2019-05-21T09:54:44.787Z,99.90
2019-05-21T09:57:17.968Z,99.90
2019-05-21T09:59:56.671Z,99.90
2019-05-21T10:02:29.024Z,99.90
2019-05-21T10:05:06.461Z,99.90
2019-05-21T10:07:40.297Z,99.90
2019-05-21T10:10:30.601Z,99.90
2019-05-21T10:13:00.721Z,99.90
2019-05-21T10:15:51.853Z,99.90
2019-05-21T10:18:22.022Z,99.90
2019-05-21T10:20:54.858Z,99.90
2019-05-21T10:23:25.113Z,99.90
2019-05-21T10:25:55.220Z,99.90
2019-05-21T10:28:25.453Z,99.90
2019-05-21T10:30:55.551Z,99.90
2019-05-21T10:33:25.733Z,99.90
2019-05-21T10:35:55.919Z,99.90
2019-05-21T10:38:26.055Z,99.90
2019-05-21T10:40:56.228Z,99.90
2019-05-21T10:43:26.425Z,99.90
2019-05-21T10:45:56.600Z,99.90
2019-05-21T10:48:38.624Z,99.90
2019-05-21T10:51:08.896Z,99.90
2019-05-21T10:53:39.340Z,99.90
2019-05-21T10:56:09.448Z,99.90
2019-05-21T10:58:39.582Z,99.90
2019-05-21T11:01:25.566Z,99.90
2019-05-21T11:04:29.894Z,99.90
2019-05-21T11:07:00.033Z,99.90
2019-05-21T11:09:30.765Z,99.90
2019-05-21T11:12:00.921Z,99.90
2019-05-21T11:14:31.085Z,99.90
2019-05-21T11:17:01.235Z,99.90
2019-05-21T11:19:31.408Z,99.90
2019-05-21T11:22:23.077Z,99.90
2019-05-21T11:24:53.342Z,99.90
2019-05-21T11:27:23.517Z,99.90
2019-05-21T11:29:53.709Z,99.90
2019-05-21T11:32:23.828Z,99.90
2019-05-21T11:34:54.042Z,99.90
2019-05-21T11:37:24.199Z,99.90
2019-05-21T11:39:54.312Z,99.90
2019-05-21T11:42:24.574Z,99.90
2019-05-21T11:44:55.203Z,99.90
2019-05-21T11:47:25.515Z,99.90
2019-05-21T11:49:55.630Z,99.90
2019-05-21T11:52:25.849Z,99.90
2019-05-21T11:55:05.584Z,99.90
2019-05-21T11:57:34.785Z,99.90
2019-05-21T12:00:06.384Z,99.90
2019-05-21T12:02:36.509Z,99.90
2019-05-21T12:05:07.526Z,99.90
2019-05-21T12:07:37.654Z,99.90
2019-05-21T12:10:07.941Z,99.90
2019-05-21T12:12:38.117Z,99.90
2019-05-21T12:15:11.096Z,99.90
2019-05-21T12:17:42.725Z,99.90
2019-05-21T12:20:14.610Z,99.90
2019-05-21T12:22:58.156Z,99.90
2019-05-21T12:25:28.338Z,99.90
2019-05-21T12:27:58.438Z,99.90
2019-05-21T12:30:28.593Z,99.90
2019-05-21T12:32:58.711Z,99.90
2019-05-21T12:35:28.828Z,99.90
2019-05-21T12:37:59.002Z,99.90
2019-05-21T12:40:30.012Z,99.90
2019-05-21T12:43:00.152Z,99.90
2019-05-21T12:45:30.286Z,99.90
2019-05-21T12:48:00.565Z,99.90
2019-05-21T12:50:46.536Z,99.90
2019-05-21T12:53:17.034Z,99.90
2019-05-21T12:55:47.208Z,99.90
2019-05-21T12:58:17.380Z,99.90
2019-05-21T13:00:47.511Z,99.90
2019-05-21T13:03:17.645Z,99.90
2019-05-21T13:05:47.846Z,99.90
2019-05-21T13:08:18.004Z,99.90
2019-05-21T13:10:48.128Z,99.90
2019-05-21T13:13:18.289Z,99.90
2019-05-21T13:15:48.399Z,99.90
2019-05-21T13:18:38.460Z,99.90
2019-05-21T13:21:08.413Z,99.90
2019-05-21T13:23:37.186Z,99.90
2019-05-21T13:26:08.677Z,99.90
2019-05-21T13:28:39.198Z,99.90
2019-05-21T13:31:09.568Z,99.90
2019-05-21T13:33:39.659Z,99.90
2019-05-21T13:36:09.995Z,99.90
2019-05-21T13:38:40.152Z,99.90
2019-05-21T13:41:11.496Z,99.90
2019-05-21T13:43:41.657Z,99.90
2019-05-21T13:46:16.013Z,99.90
2019-05-21T13:48:47.012Z,99.90
2019-05-21T13:51:18.241Z,99.90
2019-05-21T13:53:48.389Z,99.90
2019-05-21T13:56:18.837Z,99.90
2019-05-21T13:58:48.962Z,99.90
2019-05-21T14:01:20.064Z,99.90
2019-05-21T14:03:50.165Z,99.90
2019-05-21T14:06:20.600Z,97.20
2019-05-21T14:08:51.144Z,94.20
2019-05-21T14:11:21.396Z,90.70
2019-05-21T14:13:51.663Z,92.40
2019-05-21T14:16:21.890Z,88.60
2019-05-21T14:18:52.084Z,91.10
2019-05-21T14:21:22.189Z,92.30
2019-05-21T14:23:52.369Z,92.10
2019-05-21T14:26:22.518Z,90.20
2019-05-21T14:28:52.666Z,92.80
2019-05-21T14:31:22.845Z,94.70
2019-05-21T14:33:53.115Z,93.50
2019-05-21T14:36:26.066Z,91.90
2019-05-21T14:38:56.205Z,92.90
2019-05-21T14:41:33.315Z,92.60
2019-05-21T14:43:58.225Z,91.70
2019-05-21T14:46:28.407Z,96.50
2019-05-21T14:48:58.726Z,98.80
2019-05-21T14:51:28.954Z,97.00
2019-05-21T14:54:03.444Z,94.10
2019-05-21T14:56:33.720Z,92.90
2019-05-21T14:59:04.366Z,90.80
2019-05-21T15:01:34.416Z,89.90
2019-05-21T15:04:04.797Z,89.50
2019-05-21T15:06:35.048Z,91.30
2019-05-21T15:09:07.992Z,92.20
2019-05-21T15:11:38.093Z,92.30
2019-05-21T15:14:09.577Z,95.40
2019-05-21T15:16:39.662Z,95.70
2019-05-21T15:19:09.955Z,96.80
2019-05-21T15:21:47.433Z,95.30
2019-05-21T15:24:17.661Z,95.30
2019-05-21T15:26:49.251Z,95.80
2019-05-21T15:29:19.529Z,95.10
2019-05-21T15:31:49.679Z,99.70
2019-05-21T15:34:19.799Z,98.30
2019-05-21T15:36:52.191Z,99.90
2019-05-21T15:39:22.309Z,99.70
2019-05-21T15:42:03.011Z,98.70
2019-05-21T15:44:29.333Z,99.90
2019-05-21T15:46:59.537Z,99.90
2019-05-21T15:49:35.990Z,99.90
2019-05-21T15:52:01.453Z,99.90
2019-05-21T15:54:31.624Z,99.90
2019-05-21T15:57:01.854Z,99.90
2019-05-21T15:59:32.061Z,99.90
2019-05-21T16:02:02.365Z,99.90
2019-05-21T16:04:32.588Z,99.90
2019-05-21T16:07:02.749Z,99.90
2019-05-21T16:09:46.202Z,99.90
2019-05-21T16:12:16.357Z,99.90
2019-05-21T16:15:02.355Z,99.90
2019-05-21T16:17:23.160Z,99.90
2019-05-21T16:19:53.317Z,99.90
2019-05-21T16:22:23.431Z,99.90
2019-05-21T16:24:53.585Z,99.90
2019-05-21T16:27:23.764Z,99.90
2019-05-21T16:29:54.674Z,99.90
2019-05-21T16:32:24.875Z,99.90
2019-05-21T16:34:55.443Z,99.90
2019-05-21T16:37:25.792Z,99.90
2019-05-21T16:39:55.969Z,99.90
2019-05-21T16:42:26.115Z,99.90
2019-05-21T16:44:56.229Z,99.90
2019-05-21T16:47:45.804Z,99.90
2019-05-21T16:50:08.797Z,99.90
2019-05-21T16:52:58.440Z,99.90
2019-05-21T16:55:28.537Z,99.90
2019-05-21T16:58:21.981Z,99.90
2019-05-21T17:00:52.149Z,99.90
2019-05-21T17:03:59.963Z,99.90
2019-05-21T17:06:24.784Z,99.90
2019-05-21T17:09:12.049Z,99.90
2019-05-21T17:11:42.206Z,99.90
2019-05-21T17:14:35.479Z,99.90
2019-05-21T17:17:05.632Z,99.90
2019-05-21T17:19:56.059Z,99.90
2019-05-21T17:22:26.262Z,99.90
2019-05-21T17:25:03.295Z,99.90
2019-05-21T17:27:28.197Z,99.90
2019-05-21T17:29:58.313Z,99.90
2019-05-21T17:32:28.540Z,99.90
2019-05-21T17:34:58.705Z,99.90
2019-05-21T17:37:28.895Z,99.90
2019-05-21T17:39:59.800Z,99.90
2019-05-21T17:42:30.392Z,99.90
2019-05-21T17:45:54.337Z,99.90
2019-05-21T17:48:24.965Z,99.90
2019-05-21T17:50:55.854Z,99.90
2019-05-21T17:53:26.527Z,99.90
2019-05-21T17:55:57.038Z,99.90
2019-05-21T17:58:27.482Z,99.90
2019-05-21T18:01:01.346Z,99.90
2019-05-21T18:03:32.450Z,99.90
2019-05-21T18:06:04.086Z,99.90
2019-05-21T18:08:34.774Z,99.90
2019-05-21T18:11:05.784Z,99.90
2019-05-21T18:13:36.244Z,99.90
2019-05-21T18:16:08.395Z,99.90
2019-05-21T18:18:41.652Z,99.90
2019-05-21T18:21:12.214Z,99.90
2019-05-21T18:23:58.491Z,99.90
2019-05-21T18:26:28.646Z,99.90
2019-05-21T18:29:20.495Z,99.90
2019-05-21T18:31:51.449Z,99.90
2019-05-21T18:34:31.677Z,99.90
2019-05-21T18:37:02.214Z,99.90
2019-05-21T18:39:32.994Z,99.90
2019-05-21T18:42:03.360Z,99.90
2019-05-21T18:44:33.490Z,99.90
2019-05-21T18:47:04.045Z,99.90
2019-05-21T18:49:34.303Z,99.90
2019-05-21T18:52:05.232Z,99.90
2019-05-21T18:54:35.580Z,99.90
2019-05-21T18:57:08.467Z,99.90
2019-05-21T18:59:39.115Z,99.90
2019-05-21T19:02:11.049Z,99.90
2019-05-21T19:04:41.685Z,99.90
2019-05-21T19:07:13.079Z,99.90
2019-05-21T19:09:43.349Z,99.90
2019-05-21T19:12:38.249Z,99.90
2019-05-21T19:15:07.638Z,99.90
2019-05-21T19:17:54.576Z,99.90
2019-05-21T19:20:24.754Z,99.90
2019-05-21T19:22:57.816Z,99.90
2019-05-21T19:25:27.913Z,99.90
2019-05-21T19:27:58.199Z,99.90
2019-05-21T19:30:28.544Z,99.90
2019-05-21T19:32:58.711Z,99.90
2019-05-21T19:35:29.021Z,99.90
2019-05-21T19:37:59.196Z,99.90
2019-05-21T19:40:29.669Z,99.90
2019-05-21T19:42:59.844Z,99.90
2019-05-21T19:45:31.515Z,99.90
2019-05-21T19:48:01.942Z,99.90
2019-05-21T19:50:32.630Z,99.90
2019-05-21T19:53:02.781Z,99.90
2019-05-21T19:55:48.851Z,99.90
2019-05-21T19:58:18.992Z,99.90
2019-05-21T20:01:10.577Z,99.90
2019-05-21T20:03:41.085Z,99.90
2019-05-21T20:06:34.496Z,99.90
2019-05-21T20:09:06.722Z,99.90
2019-05-21T20:11:59.305Z,99.90
2019-05-21T20:14:31.152Z,99.90
2019-05-21T20:17:22.327Z,99.90
2019-05-21T20:19:53.154Z,99.90
2019-05-21T20:22:47.031Z,99.90
2019-05-21T20:25:17.676Z,99.90
2019-05-21T20:28:10.814Z,99.90
2019-05-21T20:30:44.759Z,99.90
2019-05-21T20:33:38.001Z,99.90
2019-05-21T20:36:09.038Z,99.90
2019-05-21T20:38:55.507Z,99.90
2019-05-21T20:41:25.685Z,99.90
2019-05-21T20:44:06.336Z,99.90
2019-05-21T20:46:35.836Z,99.90
2019-05-21T20:49:06.313Z,99.90
2019-05-21T20:51:37.587Z,99.90
2019-05-21T20:54:08.136Z,99.90
2019-05-21T20:56:39.229Z,99.90
2019-05-21T20:59:09.473Z,99.90
2019-05-21T21:01:40.708Z,99.90
2019-05-21T21:04:10.842Z,99.90
2019-05-21T21:06:41.773Z,99.90
2019-05-21T21:09:12.313Z,99.90
2019-05-21T21:11:43.056Z,99.90
2019-05-21T21:14:18.320Z,99.90
2019-05-21T21:16:48.358Z,99.90
2019-05-21T21:19:18.690Z,99.90
2019-05-21T21:22:11.720Z,99.90
2019-05-21T21:24:41.897Z,99.90
2019-05-21T21:27:33.854Z,99.90
2019-05-21T21:30:04.275Z,99.90
2019-05-21T21:32:56.932Z,99.90
2019-05-21T21:35:27.361Z,99.90
2019-05-21T21:38:08.132Z,99.90
2019-05-21T21:40:39.244Z,99.90
2019-05-21T21:43:09.413Z,99.90
2019-05-21T21:45:39.736Z,99.90
2019-05-21T21:48:10.001Z,99.90
2019-05-21T21:50:41.668Z,99.90
2019-05-21T21:53:12.204Z,99.90
2019-05-21T21:55:42.549Z,99.90
2019-05-21T21:58:12.879Z,99.90
2019-05-21T22:01:28.965Z,99.90
2019-05-21T22:04:02.611Z,99.90
2019-05-21T22:06:35.613Z,99.90
2019-05-21T22:09:09.346Z,99.90
2019-05-21T22:11:39.613Z,99.90
2019-05-21T22:14:10.082Z,99.90
2019-05-21T22:16:41.108Z,99.90
2019-05-21T22:19:11.921Z,99.90
2019-05-21T22:21:42.052Z,99.90
2019-05-21T22:24:12.989Z,99.90
2019-05-21T22:26:57.241Z,99.90
2019-05-21T22:29:27.510Z,99.90
2019-05-21T22:32:24.102Z,99.90
2019-05-21T22:34:54.204Z,99.90
2019-05-21T22:37:44.823Z,99.90
2019-05-21T22:40:15.580Z,99.90
2019-05-21T22:43:14.145Z,99.90
2019-05-21T22:45:44.328Z,99.90
2019-05-21T22:48:34.757Z,99.90
2019-05-21T22:51:04.901Z,99.90
2019-05-21T22:54:05.621Z,99.90
2019-05-21T22:56:35.769Z,99.90
2019-05-21T22:59:21.638Z,99.90
2019-05-21T23:01:53.950Z,99.90
2019-05-21T23:04:44.085Z,99.90
2019-05-21T23:07:15.361Z,99.90
2019-05-21T23:10:07.914Z,99.90
2019-05-21T23:12:39.834Z,99.90
2019-05-21T23:15:30.284Z,99.90
2019-05-21T23:18:00.740Z,99.90
2019-05-21T23:20:51.967Z,99.90
2019-05-21T23:23:24.330Z,99.90
2019-05-21T23:26:20.922Z,99.90
2019-05-21T23:28:41.324Z,99.90
2019-05-21T23:31:13.043Z,99.90
2019-05-21T23:33:43.364Z,99.90
2019-05-21T23:36:13.538Z,99.90
2019-05-21T23:38:43.691Z,99.90
2019-05-21T23:41:13.847Z,99.90
2019-05-21T23:43:43.995Z,99.90
2019-05-21T23:46:15.654Z,99.90
2019-05-21T23:48:45.906Z,99.90
2019-05-21T23:51:16.054Z,99.90
2019-05-21T23:53:46.273Z,99.90
2019-05-21T23:56:16.480Z,99.90
2019-05-21T23:58:48.229Z,99.90
